createdAt,value
2019-05-09T00:00:06.680Z,95335.83
2019-05-09T00:04:09.069Z,95353.28
2019-05-09T00:08:11.070Z,95340.05
2019-05-09T00:12:14.256Z,95347.70
2019-05-09T00:16:17.369Z,95333.95
2019-05-09T00:20:25.437Z,95342.39
2019-05-09T00:24:27.370Z,95334.20
2019-05-09T00:28:33.731Z,95342.11
2019-05-09T00:32:36.239Z,95328.66
2019-05-09T00:36:38.410Z,95343.42
2019-05-09T00:40:54.639Z,95333.39
2019-05-09T00:44:54.103Z,95338.14
2019-05-09T00:48:57.694Z,95339.44
2019-05-09T00:52:59.622Z,95327.02
2019-05-09T00:57:03.235Z,95339.20
2019-05-09T01:01:05.300Z,95340.23
2019-05-09T01:05:07.415Z,95335.96
2019-05-09T01:09:09.404Z,95340.72
2019-05-09T01:13:11.344Z,95336.77
2019-05-09T01:17:13.760Z,95345.97
2019-05-09T01:21:16.585Z,95356.56
2019-05-09T01:25:18.570Z,95354.69
2019-05-09T01:29:20.513Z,95353.34
2019-05-09T01:33:24.745Z,95346.23
2019-05-09T01:37:26.753Z,95355.99
2019-05-09T01:41:33.426Z,95356.52
2019-05-09T01:45:34.197Z,95343.30
2019-05-09T01:49:36.145Z,95357.77
2019-05-09T01:53:43.718Z,95349.05
2019-05-09T01:57:48.012Z,95361.42
2019-05-09T02:01:50.308Z,95366.91
2019-05-09T02:05:54.454Z,95362.15
2019-05-09T02:09:56.463Z,95358.72
2019-05-09T02:13:59.393Z,95355.78
2019-05-09T02:18:05.899Z,95364.22
2019-05-09T02:22:25.812Z,95363.65
2019-05-09T02:26:27.745Z,95366.84
2019-05-09T02:30:29.690Z,95344.75
2019-05-09T02:34:34.740Z,95342.86
2019-05-09T02:38:35.251Z,95341.51
2019-05-09T02:42:39.562Z,95349.39
2019-05-09T02:46:42.913Z,95335.52
2019-05-09T02:50:44.854Z,95332.06
2019-05-09T02:54:49.847Z,95343.58
2019-05-09T02:58:52.176Z,95346.69
2019-05-09T03:02:59.541Z,95345.36
2019-05-09T03:07:01.757Z,95349.61
2019-05-09T03:11:03.757Z,95344.04
2019-05-09T03:15:09.174Z,95348.99
2019-05-09T03:19:11.337Z,95349.73
2019-05-09T03:23:14.911Z,95353.13
2019-05-09T03:27:20.949Z,95354.14
2019-05-09T03:31:29.860Z,95339.61
2019-05-09T03:35:30.933Z,95346.25
2019-05-09T03:39:32.869Z,95339.64
2019-05-09T03:43:34.809Z,95342.88
2019-05-09T03:47:50.539Z,95339.72
2019-05-09T03:51:52.473Z,95339.41
2019-05-09T03:55:57.688Z,95332.08
2019-05-09T03:59:59.806Z,95333.73
2019-05-09T04:04:01.740Z,95344.00
2019-05-09T04:08:18.422Z,95332.36
2019-05-09T04:12:21.616Z,95324.70
2019-05-09T04:16:25.043Z,95321.81
2019-05-09T04:20:27.725Z,95320.56
2019-05-09T04:24:30.870Z,95322.89
2019-05-09T04:28:32.865Z,95324.17
2019-05-09T04:32:34.910Z,95328.02
2019-05-09T04:36:39.731Z,95334.08
2019-05-09T04:40:44.873Z,95330.08
2019-05-09T04:44:49.606Z,95336.42
2019-05-09T04:48:54.113Z,95349.61
2019-05-09T04:52:54.265Z,95343.57
2019-05-09T04:56:57.402Z,95341.20
2019-05-09T05:01:19.617Z,95351.51
2019-05-09T05:05:19.934Z,95360.70
2019-05-09T05:09:21.922Z,95361.52
2019-05-09T05:13:26.749Z,95364.95
2019-05-09T05:17:30.252Z,95366.80
2019-05-09T05:21:31.154Z,95361.77
2019-05-09T05:25:33.079Z,95365.80
2019-05-09T05:29:35.037Z,95376.78
2019-05-09T05:33:38.249Z,95366.84
2019-05-09T05:37:40.323Z,95370.84
2019-05-09T05:41:42.254Z,95366.42
2019-05-09T05:45:47.961Z,95373.80
2019-05-09T05:49:50.619Z,95369.64
2019-05-09T05:53:52.566Z,95371.77
2019-05-09T05:57:54.519Z,95374.96
2019-05-09T06:01:58.344Z,95377.60
2019-05-09T06:06:00.088Z,95372.32
2019-05-09T06:10:02.038Z,95374.27
2019-05-09T06:14:11.081Z,95368.48
2019-05-09T06:18:08.911Z,95379.59
2019-05-09T06:22:10.851Z,95371.94
2019-05-09T06:26:12.796Z,95380.41
2019-05-09T06:30:19.314Z,95382.53
2019-05-09T06:34:21.251Z,95388.30
2019-05-09T06:38:23.194Z,95399.91
2019-05-09T06:42:25.565Z,95390.18
2019-05-09T06:46:31.978Z,95387.88
2019-05-09T06:50:33.901Z,95390.77
2019-05-09T06:54:35.834Z,95385.80
2019-05-09T06:58:38.866Z,95389.27
2019-05-09T07:02:42.429Z,95382.39
2019-05-09T07:06:48.459Z,95383.23
2019-05-09T07:10:50.711Z,95384.83
2019-05-09T07:14:52.641Z,95387.45
2019-05-09T07:18:54.607Z,95380.55
2019-05-09T07:22:58.334Z,95381.59
2019-05-09T07:27:00.199Z,95374.90
2019-05-09T07:31:07.682Z,95374.31
2019-05-09T07:35:18.796Z,95368.70
2019-05-09T07:39:20.855Z,95380.34
2019-05-09T07:43:22.789Z,95372.34
2019-05-09T07:47:24.737Z,95368.28
2019-05-09T07:51:27.694Z,95366.91
2019-05-09T07:55:29.620Z,95361.28
2019-05-09T07:59:31.551Z,95359.27
2019-05-09T08:03:33.505Z,95355.17
2019-05-09T08:07:37.889Z,95366.89
2019-05-09T08:11:39.233Z,95363.35
2019-05-09T08:15:41.305Z,95365.17
2019-05-09T08:19:43.299Z,95358.25
2019-05-09T08:23:45.232Z,95364.09
2019-05-09T08:27:48.229Z,95373.49
2019-05-09T08:31:50.731Z,95373.02
2019-05-09T08:35:52.947Z,95377.95
2019-05-09T08:39:54.903Z,95364.78
2019-05-09T08:43:57.580Z,95368.77
2019-05-09T08:47:59.697Z,95363.52
2019-05-09T08:52:13.091Z,95372.05
2019-05-09T08:56:09.023Z,95372.44
2019-05-09T09:00:11.999Z,95380.75
2019-05-09T09:04:14.021Z,95378.48
2019-05-09T09:08:18.340Z,95384.13
2019-05-09T09:12:31.335Z,95380.91
2019-05-09T09:16:23.630Z,95371.20
2019-05-09T09:20:25.571Z,95369.69
2019-05-09T09:24:28.271Z,95360.77
2019-05-09T09:28:30.359Z,95354.88
2019-05-09T09:32:32.279Z,95356.69
2019-05-09T09:36:34.170Z,95357.39
2019-05-09T09:40:38.300Z,95370.33
2019-05-09T09:44:39.776Z,95367.73
2019-05-09T09:48:41.701Z,95358.13
2019-05-09T09:52:43.836Z,95284.77
2019-05-09T09:56:47.916Z,95349.67
2019-05-09T10:00:53.616Z,95347.97
2019-05-09T10:04:55.607Z,95351.34
2019-05-09T10:08:58.074Z,95342.57
2019-05-09T10:13:03.721Z,95336.44
2019-05-09T10:17:05.543Z,95328.20
2019-05-09T10:21:07.279Z,95321.31
2019-05-09T10:25:09.841Z,95322.61
2019-05-09T10:29:11.798Z,95319.98
2019-05-09T10:33:13.961Z,95316.91
2019-05-09T10:37:18.595Z,95324.16
2019-05-09T10:41:20.597Z,95318.41
2019-05-09T10:45:24.177Z,95320.16
2019-05-09T10:49:26.069Z,95311.47
2019-05-09T10:53:28.451Z,95303.63
2019-05-09T10:57:32.275Z,95293.58
2019-05-09T11:01:34.089Z,95300.91
2019-05-09T11:05:36.010Z,95298.55
2019-05-09T11:09:39.025Z,95287.50
2019-05-09T11:13:41.043Z,95282.52
2019-05-09T11:17:42.942Z,95282.19
2019-05-09T11:21:44.856Z,95264.64
2019-05-09T11:25:47.263Z,95266.39
2019-05-09T11:29:52.454Z,95262.05
2019-05-09T11:33:54.435Z,95262.52
2019-05-09T11:37:58.667Z,95268.95
2019-05-09T11:42:01.512Z,95272.73
2019-05-09T11:46:03.783Z,95270.63
2019-05-09T11:50:08.970Z,95275.52
2019-05-09T11:54:11.078Z,95274.23
2019-05-09T11:58:14.280Z,95262.61
2019-05-09T12:02:18.070Z,95261.62
2019-05-09T12:06:20.500Z,95269.38
2019-05-09T12:10:23.509Z,95274.50
2019-05-09T12:14:27.506Z,95277.97
2019-05-09T12:18:29.022Z,95271.47
2019-05-09T12:22:30.944Z,95284.27
2019-05-09T12:26:32.901Z,95296.48
2019-05-09T12:30:37.895Z,95312.52
2019-05-09T12:34:39.378Z,95341.86
2019-05-09T12:38:46.039Z,95340.31
2019-05-09T12:42:46.022Z,95344.44
2019-05-09T12:46:48.753Z,95339.13
2019-05-09T12:50:50.951Z,95345.02
2019-05-09T12:54:52.872Z,95339.31
2019-05-09T12:58:54.789Z,95337.39
2019-05-09T13:02:59.238Z,95324.17
2019-05-09T13:07:00.434Z,95319.11
2019-05-09T13:11:02.709Z,95312.63
2019-05-09T13:15:05.870Z,95314.18
2019-05-09T13:19:10.167Z,95302.66
2019-05-09T13:23:12.071Z,95318.41
2019-05-09T13:27:15.362Z,95319.17
2019-05-09T13:31:18.241Z,95316.95
2019-05-09T13:35:20.437Z,95304.80
2019-05-09T13:39:22.354Z,95316.58
2019-05-09T13:43:24.260Z,95318.01
2019-05-09T13:47:28.073Z,95322.42
2019-05-09T13:51:29.782Z,95311.25
2019-05-09T13:55:31.699Z,95314.44
2019-05-09T13:59:33.609Z,95310.61
2019-05-09T14:03:38.613Z,95304.75
2019-05-09T14:07:40.059Z,95294.34
2019-05-09T14:11:41.981Z,95298.70
2019-05-09T14:15:44.269Z,95285.86
2019-05-09T14:19:50.291Z,95279.12
2019-05-09T14:24:06.612Z,95276.05
2019-05-09T14:27:54.531Z,95272.62
2019-05-09T14:31:56.471Z,95267.63
2019-05-09T14:35:59.444Z,95269.00
2019-05-09T14:40:04.402Z,95254.71
2019-05-09T14:44:05.150Z,95251.56
2019-05-09T14:48:08.032Z,95247.94
2019-05-09T14:52:10.074Z,95244.47
2019-05-09T14:56:11.985Z,95240.73
2019-05-09T15:00:14.398Z,95237.55
2019-05-09T15:04:18.700Z,95228.00
2019-05-09T15:08:19.900Z,95232.44
2019-05-09T15:12:21.821Z,95262.73
2019-05-09T15:16:23.730Z,95357.27
2019-05-09T15:20:28.105Z,95343.69
2019-05-09T15:24:30.799Z,95351.22
2019-05-09T15:28:32.725Z,95360.41
2019-05-09T15:32:34.619Z,95355.22
2019-05-09T15:36:37.939Z,95354.16
2019-05-09T15:40:40.046Z,95355.11
2019-05-09T15:44:41.967Z,95347.56
2019-05-09T15:48:43.869Z,95347.66
2019-05-09T15:52:46.759Z,95352.50
2019-05-09T15:56:48.679Z,95355.46
2019-05-09T16:00:50.974Z,95352.39
2019-05-09T16:04:52.892Z,95346.17
2019-05-09T16:08:54.827Z,95345.00
2019-05-09T16:12:56.815Z,95338.20
2019-05-09T16:16:58.707Z,95347.02
2019-05-09T16:21:00.657Z,95328.77
2019-05-09T16:25:03.703Z,95327.95
2019-05-09T16:29:08.304Z,95331.60
2019-05-09T16:33:09.441Z,95327.60
2019-05-09T16:37:11.416Z,95332.08
2019-05-09T16:41:15.175Z,95324.62
2019-05-09T16:45:18.395Z,95317.72
2019-05-09T16:49:20.314Z,95313.77
2019-05-09T16:53:22.216Z,95315.27
2019-05-09T16:57:24.784Z,95317.74
2019-05-09T17:01:28.389Z,95307.63
2019-05-09T17:05:31.423Z,95302.19
2019-05-09T17:09:37.729Z,95308.84
2019-05-09T17:13:39.850Z,95309.12
2019-05-09T17:17:41.924Z,95307.08
2019-05-09T17:21:51.495Z,95311.55
2019-05-09T17:25:53.399Z,95313.45
2019-05-09T17:29:55.403Z,95318.12
2019-05-09T17:33:58.041Z,95320.39
2019-05-09T17:38:00.645Z,95324.64
2019-05-09T17:42:02.663Z,95329.94
2019-05-09T17:46:04.701Z,95336.60
2019-05-09T17:50:07.959Z,95332.33
2019-05-09T17:54:09.884Z,95339.30
2019-05-09T17:58:26.147Z,95348.38
2019-05-09T18:02:17.463Z,95355.42
2019-05-09T18:06:19.367Z,95349.91
2019-05-09T18:10:22.150Z,95356.78
2019-05-09T18:14:24.075Z,95361.05
2019-05-09T18:18:28.427Z,95357.08
2019-05-09T18:22:29.738Z,95357.86
2019-05-09T18:26:31.635Z,95362.06
2019-05-09T18:30:33.742Z,95362.27
2019-05-09T18:34:37.866Z,95368.16
2019-05-09T18:38:39.294Z,95376.13
2019-05-09T18:42:41.266Z,95371.58
2019-05-09T18:46:55.024Z,95380.13
2019-05-09T18:50:57.187Z,95384.36
2019-05-09T18:54:59.074Z,95380.63
2019-05-09T18:59:01.558Z,95378.49
2019-05-09T19:03:03.454Z,95373.80
2019-05-09T19:07:20.727Z,95385.75
2019-05-09T19:11:09.035Z,95394.76
2019-05-09T19:15:19.415Z,95408.55
2019-05-09T19:19:25.459Z,95407.80
2019-05-09T19:23:27.441Z,95414.42
2019-05-09T19:27:29.343Z,95413.37
2019-05-09T19:31:31.272Z,95428.19
2019-05-09T19:35:33.263Z,95425.54
2019-05-09T19:39:35.209Z,95431.89
2019-05-09T19:43:37.108Z,95436.66
2019-05-09T19:47:39.022Z,95439.31
2019-05-09T19:51:42.057Z,95445.41
2019-05-09T19:55:43.976Z,95455.48
2019-05-09T19:59:46.167Z,95459.98
2019-05-09T20:03:48.705Z,95459.70
2019-05-09T20:07:51.904Z,95469.26
2019-05-09T20:11:58.134Z,95461.31
2019-05-09T20:16:00.043Z,95467.13
2019-05-09T20:20:01.965Z,95476.16
2019-05-09T20:24:04.711Z,95472.95
2019-05-09T20:28:07.294Z,95487.55
2019-05-09T20:32:09.279Z,95487.80
2019-05-09T20:36:11.506Z,95499.20
2019-05-09T20:40:14.461Z,95499.72
2019-05-09T20:44:16.557Z,95514.58
2019-05-09T20:48:18.717Z,95515.62
2019-05-09T20:52:21.853Z,95524.11
2019-05-09T20:56:24.092Z,95524.63
2019-05-09T21:00:26.502Z,95530.20
2019-05-09T21:04:28.582Z,95531.53
2019-05-09T21:08:30.732Z,95541.58
2019-05-09T21:12:32.894Z,95520.91
2019-05-09T21:16:35.088Z,95549.79
2019-05-09T21:20:38.139Z,95551.66
2019-05-09T21:24:40.237Z,95558.53
2019-05-09T21:28:42.330Z,95564.36
2019-05-09T21:32:44.517Z,95574.95
2019-05-09T21:36:46.403Z,95577.34
2019-05-09T21:40:48.319Z,95586.86
2019-05-09T21:44:51.349Z,95589.27
2019-05-09T21:48:53.258Z,95596.16
2019-05-09T21:52:56.256Z,95591.12
2019-05-09T21:56:58.168Z,95599.09
2019-05-09T22:01:01.923Z,95601.44
2019-05-09T22:05:06.215Z,95611.25
2019-05-09T22:09:10.283Z,95619.20
2019-05-09T22:13:12.627Z,95618.09
2019-05-09T22:17:25.434Z,95620.75
2019-05-09T22:21:27.404Z,95629.48
2019-05-09T22:25:29.313Z,95631.86
2019-05-09T22:29:31.230Z,95642.47
2019-05-09T22:33:33.139Z,95641.42
2019-05-09T22:37:35.124Z,95644.08
2019-05-09T22:41:37.052Z,95654.39
2019-05-09T22:45:38.950Z,95653.61
2019-05-09T22:49:40.956Z,95659.18
2019-05-09T22:53:42.870Z,95661.30
2019-05-09T22:57:44.768Z,95670.28
2019-05-09T23:01:46.680Z,95673.47
2019-05-09T23:05:48.658Z,95674.48
2019-05-09T23:09:51.202Z,95683.53
2019-05-09T23:13:53.129Z,95676.11
2019-05-09T23:17:55.021Z,95685.63
2019-05-09T23:21:56.934Z,95693.56
2019-05-09T23:25:59.118Z,95682.48
2019-05-09T23:30:01.427Z,95682.20
2019-05-09T23:34:03.354Z,95688.34
2019-05-09T23:38:05.251Z,95683.00
2019-05-09T23:42:07.242Z,95689.59
2019-05-09T23:46:09.154Z,95682.44
2019-05-09T23:50:12.353Z,95698.62
2019-05-09T23:54:45.032Z,95696.78
2019-05-09T23:58:55.511Z,95696.22
